ORD weather

Chicago O'Hare International Airport
Chicago, Illinois, United States

Public forecast

Using degrees Fahrenheit for public forecast. Weather courtesy of forecast.io.

METAR (pilot weather report)

Retrieved 2018/12/19 14:51 UTC (12 minutes ago):

KORD 191451Z 18010KT 10SM FEW100 BKN140 OVC250 03/M02 A2987 RMK AO2 SLP121 T00331017 56012

TAF (pilot weather forecast)

Retrieved 2018/12/19 12:39 UTC (2 hours ago):

TAF KORD 191136Z 1912/2018 20008KT P6SM SCT120 OVC250 FM191600 20011G17KT P6SM OVC120 FM200300 19009KT P6SM SCT030 OVC090 FM200700 19008KT 6SM BR OVC025 FM201000 19007KT 4SM BR VCSH SCT008 OVC012 FM201200 20005KT 3SM BR VCSH SCT005 OVC009 FM201500 23004KT 4SM -RA BR SCT004 OVC008